sensor_id;sensor_type;location;lat;lon;timestamp;temperature;humidity
31967;DHT22;18496;52.042;6.812;2024-03-08T00:01:46;7.90;99.90
31967;DHT22;18496;52.042;6.812;2024-03-08T00:03:50;7.90;99.90
31967;DHT22;18496;52.042;6.812;2024-03-08T00:05:55;7.90;99.90
31967;DHT22;18496;52.042;6.812;2024-03-08T00:07:59;7.90;99.90
31967;DHT22;18496;52.042;6.812;2024-03-08T00:10:04;7.90;99.90
31967;DHT22;18496;52.042;6.812;2024-03-08T00:12:08;7.90;99.90
31967;DHT22;18496;52.042;6.812;2024-03-08T00:14:12;7.90;99.90
31967;DHT22;18496;52.042;6.812;2024-03-08T00:16:15;7.90;99.90
31967;DHT22;18496;52.042;6.812;2024-03-08T00:18:19;7.80;99.90
31967;DHT22;18496;52.042;6.812;2024-03-08T00:20:23;7.80;99.90
31967;DHT22;18496;52.042;6.812;2024-03-08T00:22:26;7.80;99.90
31967;DHT22;18496;52.042;6.812;2024-03-08T00:24:30;7.80;99.90
31967;DHT22;18496;52.042;6.812;2024-03-08T00:26:34;7.90;99.90
31967;DHT22;18496;52.042;6.812;2024-03-08T00:28:38;7.80;99.90
31967;DHT22;18496;52.042;6.812;2024-03-08T00:30:41;7.80;99.90
31967;DHT22;18496;52.042;6.812;2024-03-08T00:32:46;7.80;99.90
31967;DHT22;18496;52.042;6.812;2024-03-08T00:34:50;7.80;99.90
31967;DHT22;18496;52.042;6.812;2024-03-08T00:36:55;7.80;99.90
31967;DHT22;18496;52.042;6.812;2024-03-08T00:38:59;7.70;99.90
31967;DHT22;18496;52.042;6.812;2024-03-08T00:41:04;7.80;99.90
31967;DHT22;18496;52.042;6.812;2024-03-08T00:43:07;7.70;99.90
31967;DHT22;18496;52.042;6.812;2024-03-08T00:45:12;7.70;99.90
31967;DHT22;18496;52.042;6.812;2024-03-08T00:47:15;7.70;99.90
31967;DHT22;18496;52.042;6.812;2024-03-08T00:49:19;7.70;99.90
31967;DHT22;18496;52.042;6.812;2024-03-08T00:51:23;7.60;99.90
31967;DHT22;18496;52.042;6.812;2024-03-08T00:53:27;7.60;99.90
31967;DHT22;18496;52.042;6.812;2024-03-08T00:55:30;7.70;99.90
31967;DHT22;18496;52.042;6.812;2024-03-08T00:57:34;7.60;99.90
31967;DHT22;18496;52.042;6.812;2024-03-08T00:59:38;7.60;99.90
31967;DHT22;18496;52.042;6.812;2024-03-08T01:01:42;7.60;99.90
31967;DHT22;18496;52.042;6.812;2024-03-08T01:03:47;7.60;99.90
31967;DHT22;18496;52.042;6.812;2024-03-08T01:05:52;7.60;99.90
31967;DHT22;18496;52.042;6.812;2024-03-08T01:07:55;7.60;99.90
31967;DHT22;18496;52.042;6.812;2024-03-08T01:09:59;7.50;99.90
31967;DHT22;18496;52.042;6.812;2024-03-08T01:12:04;7.50;99.90
31967;DHT22;18496;52.042;6.812;2024-03-08T01:14:10;7.50;99.90
31967;DHT22;18496;52.042;6.812;2024-03-08T01:16:14;7.40;99.90
31967;DHT22;18496;52.042;6.812;2024-03-08T01:18:18;7.50;99.90
31967;DHT22;18496;52.042;6.812;2024-03-08T01:20:23;7.50;99.90
31967;DHT22;18496;52.042;6.812;2024-03-08T01:22:26;7.50;99.90
31967;DHT22;18496;52.042;6.812;2024-03-08T01:24:31;7.50;99.90
31967;DHT22;18496;52.042;6.812;2024-03-08T01:26:35;7.40;99.90
31967;DHT22;18496;52.042;6.812;2024-03-08T01:28:39;7.40;99.90
31967;DHT22;18496;52.042;6.812;2024-03-08T01:30:42;7.40;99.90
31967;DHT22;18496;52.042;6.812;2024-03-08T01:32:47;7.40;99.90
31967;DHT22;18496;52.042;6.812;2024-03-08T01:34:50;7.30;99.90
31967;DHT22;18496;52.042;6.812;2024-03-08T01:36:54;7.30;99.90
31967;DHT22;18496;52.042;6.812;2024-03-08T01:39:00;7.30;99.90
31967;DHT22;18496;52.042;6.812;2024-03-08T01:41:03;7.30;99.90
31967;DHT22;18496;52.042;6.812;2024-03-08T01:43:33;7.30;99.90
31967;DHT22;18496;52.042;6.812;2024-03-08T01:45:37;7.30;99.90
31967;DHT22;18496;52.042;6.812;2024-03-08T01:47:41;7.20;99.90
31967;DHT22;18496;52.042;6.812;2024-03-08T01:49:45;7.20;99.90
31967;DHT22;18496;52.042;6.812;2024-03-08T01:51:48;7.20;99.90
31967;DHT22;18496;52.042;6.812;2024-03-08T01:53:53;7.20;99.90
31967;DHT22;18496;52.042;6.812;2024-03-08T01:55:57;7.20;99.90
31967;DHT22;18496;52.042;6.812;2024-03-08T01:58:03;7.20;99.90
31967;DHT22;18496;52.042;6.812;2024-03-08T02:00:07;7.10;99.90
31967;DHT22;18496;52.042;6.812;2024-03-08T02:02:15;7.20;99.90
31967;DHT22;18496;52.042;6.812;2024-03-08T02:04:21;7.20;99.90
31967;DHT22;18496;52.042;6.812;2024-03-08T02:06:25;7.10;99.90
31967;DHT22;18496;52.042;6.812;2024-03-08T02:08:29;7.10;99.90
31967;DHT22;18496;52.042;6.812;2024-03-08T02:10:33;7.10;99.90
31967;DHT22;18496;52.042;6.812;2024-03-08T02:12:37;7.10;99.90
31967;DHT22;18496;52.042;6.812;2024-03-08T02:14:41;7.10;99.90
31967;DHT22;18496;52.042;6.812;2024-03-08T02:16:47;7.10;99.90
31967;DHT22;18496;52.042;6.812;2024-03-08T02:18:50;7.10;99.90
31967;DHT22;18496;52.042;6.812;2024-03-08T02:20:55;7.00;99.90
31967;DHT22;18496;52.042;6.812;2024-03-08T02:22:59;7.00;99.90
31967;DHT22;18496;52.042;6.812;2024-03-08T02:25:03;7.00;99.90
31967;DHT22;18496;52.042;6.812;2024-03-08T02:27:07;6.90;99.90
31967;DHT22;18496;52.042;6.812;2024-03-08T02:29:11;6.90;99.90
31967;DHT22;18496;52.042;6.812;2024-03-08T02:31:15;6.80;99.90
31967;DHT22;18496;52.042;6.812;2024-03-08T02:33:20;6.90;99.90
31967;DHT22;18496;52.042;6.812;2024-03-08T02:35:23;6.90;99.90
31967;DHT22;18496;52.042;6.812;2024-03-08T02:37:27;6.90;99.90
31967;DHT22;18496;52.042;6.812;2024-03-08T02:39:31;6.80;99.90
31967;DHT22;18496;52.042;6.812;2024-03-08T02:41:35;6.80;99.90
31967;DHT22;18496;52.042;6.812;2024-03-08T02:43:39;6.80;99.90
31967;DHT22;18496;52.042;6.812;2024-03-08T02:45:43;6.80;99.90
31967;DHT22;18496;52.042;6.812;2024-03-08T02:47:47;6.80;99.90
31967;DHT22;18496;52.042;6.812;2024-03-08T02:49:53;6.80;99.90
31967;DHT22;18496;52.042;6.812;2024-03-08T02:51:57;6.80;99.90
31967;DHT22;18496;52.042;6.812;2024-03-08T02:54:02;6.80;99.90
31967;DHT22;18496;52.042;6.812;2024-03-08T02:56:07;6.80;99.90
31967;DHT22;18496;52.042;6.812;2024-03-08T02:58:12;6.70;99.90
31967;DHT22;18496;52.042;6.812;2024-03-08T03:00:18;6.70;99.90
31967;DHT22;18496;52.042;6.812;2024-03-08T03:02:22;6.70;99.90
31967;DHT22;18496;52.042;6.812;2024-03-08T03:04:27;6.70;99.90
31967;DHT22;18496;52.042;6.812;2024-03-08T03:06:31;6.70;99.90
31967;DHT22;18496;52.042;6.812;2024-03-08T03:08:35;6.70;99.90
31967;DHT22;18496;52.042;6.812;2024-03-08T03:10:38;6.70;99.90
31967;DHT22;18496;52.042;6.812;2024-03-08T03:12:42;6.70;99.90
31967;DHT22;18496;52.042;6.812;2024-03-08T03:14:46;6.70;99.90
31967;DHT22;18496;52.042;6.812;2024-03-08T03:16:50;6.60;99.90
31967;DHT22;18496;52.042;6.812;2024-03-08T03:18:54;6.60;99.90
31967;DHT22;18496;52.042;6.812;2024-03-08T03:21:00;6.70;99.90
31967;DHT22;18496;52.042;6.812;2024-03-08T03:23:09;6.70;99.90
31967;DHT22;18496;52.042;6.812;2024-03-08T03:25:13;6.60;99.90
31967;DHT22;18496;52.042;6.812;2024-03-08T03:27:17;6.60;99.90
31967;DHT22;18496;52.042;6.812;2024-03-08T03:29:21;6.60;99.90
31967;DHT22;18496;52.042;6.812;2024-03-08T03:31:25;6.60;99.90
31967;DHT22;18496;52.042;6.812;2024-03-08T03:33:28;6.60;99.90
31967;DHT22;18496;52.042;6.812;2024-03-08T03:35:33;6.60;99.90
31967;DHT22;18496;52.042;6.812;2024-03-08T03:37:37;6.50;99.90
31967;DHT22;18496;52.042;6.812;2024-03-08T03:39:42;6.50;99.90
31967;DHT22;18496;52.042;6.812;2024-03-08T03:41:52;6.50;99.90
31967;DHT22;18496;52.042;6.812;2024-03-08T03:43:56;6.50;99.90
31967;DHT22;18496;52.042;6.812;2024-03-08T03:45:59;6.50;99.90
31967;DHT22;18496;52.042;6.812;2024-03-08T03:48:07;6.50;99.90
31967;DHT22;18496;52.042;6.812;2024-03-08T03:50:12;6.50;99.90
31967;DHT22;18496;52.042;6.812;2024-03-08T03:52:16;6.50;99.90
31967;DHT22;18496;52.042;6.812;2024-03-08T03:54:20;6.40;99.90
31967;DHT22;18496;52.042;6.812;2024-03-08T03:56:27;6.40;99.90
31967;DHT22;18496;52.042;6.812;2024-03-08T03:58:31;6.40;99.90
31967;DHT22;18496;52.042;6.812;2024-03-08T04:00:34;6.40;99.90
31967;DHT22;18496;52.042;6.812;2024-03-08T04:02:39;6.40;99.90
31967;DHT22;18496;52.042;6.812;2024-03-08T04:04:42;6.30;99.90
31967;DHT22;18496;52.042;6.812;2024-03-08T04:06:47;6.40;99.90
31967;DHT22;18496;52.042;6.812;2024-03-08T04:08:51;6.30;99.90
31967;DHT22;18496;52.042;6.812;2024-03-08T04:10:55;6.30;99.90
31967;DHT22;18496;52.042;6.812;2024-03-08T04:12:58;6.30;99.90
31967;DHT22;18496;52.042;6.812;2024-03-08T04:15:02;6.30;99.90
31967;DHT22;18496;52.042;6.812;2024-03-08T04:17:06;6.40;99.90
31967;DHT22;18496;52.042;6.812;2024-03-08T04:19:10;6.40;99.90
31967;DHT22;18496;52.042;6.812;2024-03-08T04:21:13;6.30;99.90
31967;DHT22;18496;52.042;6.812;2024-03-08T04:23:17;6.30;99.90
31967;DHT22;18496;52.042;6.812;2024-03-08T04:25:21;6.30;99.90
31967;DHT22;18496;52.042;6.812;2024-03-08T04:27:25;6.30;99.90
31967;DHT22;18496;52.042;6.812;2024-03-08T04:29:28;6.30;99.90
31967;DHT22;18496;52.042;6.812;2024-03-08T04:31:32;6.30;99.90
31967;DHT22;18496;52.042;6.812;2024-03-08T04:33:36;6.30;99.90
31967;DHT22;18496;52.042;6.812;2024-03-08T04:35:39;6.30;99.90
31967;DHT22;18496;52.042;6.812;2024-03-08T04:37:43;6.30;99.90
31967;DHT22;18496;52.042;6.812;2024-03-08T04:39:48;6.30;99.90
31967;DHT22;18496;52.042;6.812;2024-03-08T04:41:52;6.30;99.90
31967;DHT22;18496;52.042;6.812;2024-03-08T04:43:57;6.30;99.90
31967;DHT22;18496;52.042;6.812;2024-03-08T04:46:01;6.20;99.90
31967;DHT22;18496;52.042;6.812;2024-03-08T04:48:07;6.30;99.90
31967;DHT22;18496;52.042;6.812;2024-03-08T04:50:12;6.30;99.90
31967;DHT22;18496;52.042;6.812;2024-03-08T04:52:16;6.20;99.90
31967;DHT22;18496;52.042;6.812;2024-03-08T04:54:20;6.20;99.90
31967;DHT22;18496;52.042;6.812;2024-03-08T04:56:23;6.20;99.90
31967;DHT22;18496;52.042;6.812;2024-03-08T04:58:27;6.20;99.90
31967;DHT22;18496;52.042;6.812;2024-03-08T05:00:32;6.20;99.90
31967;DHT22;18496;52.042;6.812;2024-03-08T05:02:36;6.20;99.90
31967;DHT22;18496;52.042;6.812;2024-03-08T05:04:39;6.10;99.90
31967;DHT22;18496;52.042;6.812;2024-03-08T05:06:44;6.20;99.90
31967;DHT22;18496;52.042;6.812;2024-03-08T05:08:47;6.10;99.90
31967;DHT22;18496;52.042;6.812;2024-03-08T05:10:51;6.10;99.90
31967;DHT22;18496;52.042;6.812;2024-03-08T05:12:54;6.10;99.90
31967;DHT22;18496;52.042;6.812;2024-03-08T05:14:58;6.10;99.90
31967;DHT22;18496;52.042;6.812;2024-03-08T05:17:02;6.10;99.90
31967;DHT22;18496;52.042;6.812;2024-03-08T05:19:06;6.10;99.90
31967;DHT22;18496;52.042;6.812;2024-03-08T05:21:09;6.00;99.90
31967;DHT22;18496;52.042;6.812;2024-03-08T05:23:13;6.00;99.90
31967;DHT22;18496;52.042;6.812;2024-03-08T05:25:17;6.00;99.90
31967;DHT22;18496;52.042;6.812;2024-03-08T05:27:21;6.00;99.90
31967;DHT22;18496;52.042;6.812;2024-03-08T05:29:25;6.00;99.90
31967;DHT22;18496;52.042;6.812;2024-03-08T05:31:28;6.00;99.90
31967;DHT22;18496;52.042;6.812;2024-03-08T05:33:33;6.00;99.90
31967;DHT22;18496;52.042;6.812;2024-03-08T05:35:38;6.00;99.90
31967;DHT22;18496;52.042;6.812;2024-03-08T05:37:42;5.90;99.90
31967;DHT22;18496;52.042;6.812;2024-03-08T05:39:48;5.90;99.90
31967;DHT22;18496;52.042;6.812;2024-03-08T05:41:52;5.90;99.90
31967;DHT22;18496;52.042;6.812;2024-03-08T05:43:56;5.90;99.90
31967;DHT22;18496;52.042;6.812;2024-03-08T05:45:59;5.90;99.90
31967;DHT22;18496;52.042;6.812;2024-03-08T05:48:03;5.90;99.90
31967;DHT22;18496;52.042;6.812;2024-03-08T05:50:08;5.90;99.90
31967;DHT22;18496;52.042;6.812;2024-03-08T05:52:14;5.90;99.90
31967;DHT22;18496;52.042;6.812;2024-03-08T05:54:18;5.90;99.90
31967;DHT22;18496;52.042;6.812;2024-03-08T05:56:25;5.90;99.90
31967;DHT22;18496;52.042;6.812;2024-03-08T05:58:29;5.90;99.90
31967;DHT22;18496;52.042;6.812;2024-03-08T06:00:35;5.90;99.90
31967;DHT22;18496;52.042;6.812;2024-03-08T06:02:39;5.90;99.90
31967;DHT22;18496;52.042;6.812;2024-03-08T06:04:45;5.90;99.90
31967;DHT22;18496;52.042;6.812;2024-03-08T06:06:50;5.80;99.90
31967;DHT22;18496;52.042;6.812;2024-03-08T06:08:55;5.80;99.90
31967;DHT22;18496;52.042;6.812;2024-03-08T06:11:02;5.80;99.90
31967;DHT22;18496;52.042;6.812;2024-03-08T06:13:06;5.80;99.90
31967;DHT22;18496;52.042;6.812;2024-03-08T06:15:10;5.70;99.90
31967;DHT22;18496;52.042;6.812;2024-03-08T06:17:13;5.80;99.90
31967;DHT22;18496;52.042;6.812;2024-03-08T06:19:17;5.80;99.90
31967;DHT22;18496;52.042;6.812;2024-03-08T06:21:21;5.70;99.90
31967;DHT22;18496;52.042;6.812;2024-03-08T06:23:26;5.80;99.90
31967;DHT22;18496;52.042;6.812;2024-03-08T06:25:30;5.70;99.90
31967;DHT22;18496;52.042;6.812;2024-03-08T06:27:34;5.70;99.90
31967;DHT22;18496;52.042;6.812;2024-03-08T06:29:38;5.70;99.90
31967;DHT22;18496;52.042;6.812;2024-03-08T06:31:42;5.70;99.90
31967;DHT22;18496;52.042;6.812;2024-03-08T06:33:46;5.70;99.90
31967;DHT22;18496;52.042;6.812;2024-03-08T06:35:50;5.70;99.90
31967;DHT22;18496;52.042;6.812;2024-03-08T06:37:53;5.70;99.90
31967;DHT22;18496;52.042;6.812;2024-03-08T06:39:57;5.70;99.90
31967;DHT22;18496;52.042;6.812;2024-03-08T06:42:01;5.70;99.90
31967;DHT22;18496;52.042;6.812;2024-03-08T06:44:05;5.70;99.90
31967;DHT22;18496;52.042;6.812;2024-03-08T06:46:11;5.70;99.90
31967;DHT22;18496;52.042;6.812;2024-03-08T06:48:17;5.70;99.90
31967;DHT22;18496;52.042;6.812;2024-03-08T06:50:21;5.70;99.90
31967;DHT22;18496;52.042;6.812;2024-03-08T06:52:25;5.70;99.90
31967;DHT22;18496;52.042;6.812;2024-03-08T06:54:28;5.70;99.90
31967;DHT22;18496;52.042;6.812;2024-03-08T06:56:32;5.70;99.90
31967;DHT22;18496;52.042;6.812;2024-03-08T06:58:36;5.70;99.90
31967;DHT22;18496;52.042;6.812;2024-03-08T07:00:39;5.70;99.90
31967;DHT22;18496;52.042;6.812;2024-03-08T07:02:46;5.70;99.90
31967;DHT22;18496;52.042;6.812;2024-03-08T07:04:51;5.70;99.90
31967;DHT22;18496;52.042;6.812;2024-03-08T07:06:55;5.70;99.90
31967;DHT22;18496;52.042;6.812;2024-03-08T07:08:59;5.70;99.90
31967;DHT22;18496;52.042;6.812;2024-03-08T07:11:02;5.70;99.90
31967;DHT22;18496;52.042;6.812;2024-03-08T07:13:07;5.70;99.90
31967;DHT22;18496;52.042;6.812;2024-03-08T07:15:12;5.70;99.90
31967;DHT22;18496;52.042;6.812;2024-03-08T07:17:19;5.70;99.90
31967;DHT22;18496;52.042;6.812;2024-03-08T07:19:23;5.70;99.90
31967;DHT22;18496;52.042;6.812;2024-03-08T07:21:27;5.70;99.90
31967;DHT22;18496;52.042;6.812;2024-03-08T07:23:31;5.70;99.90
31967;DHT22;18496;52.042;6.812;2024-03-08T07:25:50;5.70;99.90
31967;DHT22;18496;52.042;6.812;2024-03-08T07:27:54;5.60;99.90
31967;DHT22;18496;52.042;6.812;2024-03-08T07:29:58;5.70;99.90
31967;DHT22;18496;52.042;6.812;2024-03-08T07:32:06;5.60;99.90
31967;DHT22;18496;52.042;6.812;2024-03-08T07:34:37;5.70;99.90
31967;DHT22;18496;52.042;6.812;2024-03-08T07:36:40;5.70;99.90
31967;DHT22;18496;52.042;6.812;2024-03-08T07:38:44;5.60;99.90
31967;DHT22;18496;52.042;6.812;2024-03-08T07:40:50;5.70;99.90
31967;DHT22;18496;52.042;6.812;2024-03-08T07:42:53;5.70;99.90
31967;DHT22;18496;52.042;6.812;2024-03-08T07:44:57;5.70;99.90
31967;DHT22;18496;52.042;6.812;2024-03-08T07:47:01;5.70;99.90
31967;DHT22;18496;52.042;6.812;2024-03-08T07:49:04;5.70;99.90
31967;DHT22;18496;52.042;6.812;2024-03-08T07:51:08;5.70;99.90
31967;DHT22;18496;52.042;6.812;2024-03-08T07:53:13;5.80;99.90
31967;DHT22;18496;52.042;6.812;2024-03-08T07:55:16;5.80;99.90
31967;DHT22;18496;52.042;6.812;2024-03-08T07:57:20;5.80;99.90
31967;DHT22;18496;52.042;6.812;2024-03-08T07:59:24;5.80;99.90
31967;DHT22;18496;52.042;6.812;2024-03-08T08:01:28;5.80;99.90
31967;DHT22;18496;52.042;6.812;2024-03-08T08:03:32;5.80;99.90
31967;DHT22;18496;52.042;6.812;2024-03-08T08:05:35;5.80;99.90
31967;DHT22;18496;52.042;6.812;2024-03-08T08:07:44;5.70;99.90
31967;DHT22;18496;52.042;6.812;2024-03-08T08:09:48;5.80;99.90
31967;DHT22;18496;52.042;6.812;2024-03-08T08:11:51;5.80;99.90
31967;DHT22;18496;52.042;6.812;2024-03-08T08:13:55;5.80;99.90
31967;DHT22;18496;52.042;6.812;2024-03-08T08:15:59;5.80;99.90
31967;DHT22;18496;52.042;6.812;2024-03-08T08:18:02;5.80;99.90
31967;DHT22;18496;52.042;6.812;2024-03-08T08:20:10;5.90;99.90
31967;DHT22;18496;52.042;6.812;2024-03-08T08:22:15;5.90;99.90
31967;DHT22;18496;52.042;6.812;2024-03-08T08:24:18;5.90;99.90
31967;DHT22;18496;52.042;6.812;2024-03-08T08:26:24;6.00;99.90
31967;DHT22;18496;52.042;6.812;2024-03-08T08:28:29;6.00;99.90
31967;DHT22;18496;52.042;6.812;2024-03-08T08:30:34;6.10;99.90
31967;DHT22;18496;52.042;6.812;2024-03-08T08:32:38;6.10;99.90
31967;DHT22;18496;52.042;6.812;2024-03-08T08:34:50;6.10;99.90
31967;DHT22;18496;52.042;6.812;2024-03-08T08:36:54;6.10;99.90
31967;DHT22;18496;52.042;6.812;2024-03-08T08:38:58;6.10;99.90
31967;DHT22;18496;52.042;6.812;2024-03-08T08:41:03;6.20;99.90
31967;DHT22;18496;52.042;6.812;2024-03-08T08:43:07;6.20;99.90
31967;DHT22;18496;52.042;6.812;2024-03-08T08:45:11;6.20;99.90
31967;DHT22;18496;52.042;6.812;2024-03-08T08:47:16;6.20;99.90
31967;DHT22;18496;52.042;6.812;2024-03-08T08:49:22;6.20;99.90
31967;DHT22;18496;52.042;6.812;2024-03-08T08:51:27;6.30;99.90
31967;DHT22;18496;52.042;6.812;2024-03-08T08:53:31;6.30;99.90
31967;DHT22;18496;52.042;6.812;2024-03-08T08:55:34;6.30;99.90
31967;DHT22;18496;52.042;6.812;2024-03-08T08:57:39;6.40;99.90
31967;DHT22;18496;52.042;6.812;2024-03-08T08:59:43;6.40;99.90
31967;DHT22;18496;52.042;6.812;2024-03-08T09:01:46;6.50;99.90
31967;DHT22;18496;52.042;6.812;2024-03-08T09:03:53;6.50;99.90
31967;DHT22;18496;52.042;6.812;2024-03-08T09:05:57;6.60;99.90
31967;DHT22;18496;52.042;6.812;2024-03-08T09:08:01;6.60;99.90
31967;DHT22;18496;52.042;6.812;2024-03-08T09:10:06;6.70;99.90
31967;DHT22;18496;52.042;6.812;2024-03-08T09:12:13;6.70;99.90
31967;DHT22;18496;52.042;6.812;2024-03-08T09:14:16;6.80;99.90
31967;DHT22;18496;52.042;6.812;2024-03-08T09:16:20;6.80;99.90
31967;DHT22;18496;52.042;6.812;2024-03-08T09:18:24;6.80;99.90
31967;DHT22;18496;52.042;6.812;2024-03-08T09:20:28;6.90;99.90
31967;DHT22;18496;52.042;6.812;2024-03-08T09:22:33;7.00;99.90
31967;DHT22;18496;52.042;6.812;2024-03-08T09:24:36;7.00;99.90
31967;DHT22;18496;52.042;6.812;2024-03-08T09:26:40;7.10;99.90
31967;DHT22;18496;52.042;6.812;2024-03-08T09:28:45;7.10;99.90
31967;DHT22;18496;52.042;6.812;2024-03-08T09:30:49;7.10;99.90
31967;DHT22;18496;52.042;6.812;2024-03-08T09:32:53;7.20;99.90
31967;DHT22;18496;52.042;6.812;2024-03-08T09:34:56;7.20;99.90
31967;DHT22;18496;52.042;6.812;2024-03-08T09:37:00;7.30;99.90
31967;DHT22;18496;52.042;6.812;2024-03-08T09:39:04;7.30;99.90
31967;DHT22;18496;52.042;6.812;2024-03-08T09:41:11;7.40;99.90
31967;DHT22;18496;52.042;6.812;2024-03-08T09:43:14;7.50;99.90
31967;DHT22;18496;52.042;6.812;2024-03-08T09:45:20;7.50;99.90
31967;DHT22;18496;52.042;6.812;2024-03-08T09:47:26;7.60;99.90
31967;DHT22;18496;52.042;6.812;2024-03-08T09:49:36;7.60;99.90
31967;DHT22;18496;52.042;6.812;2024-03-08T09:51:40;7.70;99.90
31967;DHT22;18496;52.042;6.812;2024-03-08T09:53:44;7.70;99.90
31967;DHT22;18496;52.042;6.812;2024-03-08T09:55:49;7.80;99.90
31967;DHT22;18496;52.042;6.812;2024-03-08T09:57:54;7.80;99.90
31967;DHT22;18496;52.042;6.812;2024-03-08T10:00:17;7.90;99.90
31967;DHT22;18496;52.042;6.812;2024-03-08T10:02:27;8.00;99.90
31967;DHT22;18496;52.042;6.812;2024-03-08T10:04:32;8.00;99.90
31967;DHT22;18496;52.042;6.812;2024-03-08T10:06:36;8.10;99.90
31967;DHT22;18496;52.042;6.812;2024-03-08T10:08:40;8.10;99.90
31967;DHT22;18496;52.042;6.812;2024-03-08T10:10:43;8.30;99.90
31967;DHT22;18496;52.042;6.812;2024-03-08T10:12:48;8.30;99.90
31967;DHT22;18496;52.042;6.812;2024-03-08T10:14:55;8.30;99.90
31967;DHT22;18496;52.042;6.812;2024-03-08T10:16:59;8.40;99.90
31967;DHT22;18496;52.042;6.812;2024-03-08T10:19:04;8.40;99.90
31967;DHT22;18496;52.042;6.812;2024-03-08T10:21:16;8.50;99.90
31967;DHT22;18496;52.042;6.812;2024-03-08T10:23:20;8.50;99.90
31967;DHT22;18496;52.042;6.812;2024-03-08T10:25:24;8.60;99.90
31967;DHT22;18496;52.042;6.812;2024-03-08T10:27:27;8.70;99.90
31967;DHT22;18496;52.042;6.812;2024-03-08T10:29:35;8.70;99.90
31967;DHT22;18496;52.042;6.812;2024-03-08T10:31:39;8.80;99.90
31967;DHT22;18496;52.042;6.812;2024-03-08T10:33:43;8.80;99.90
31967;DHT22;18496;52.042;6.812;2024-03-08T10:35:47;8.90;99.90
31967;DHT22;18496;52.042;6.812;2024-03-08T10:37:51;8.90;99.90
31967;DHT22;18496;52.042;6.812;2024-03-08T10:40:10;8.90;99.90
31967;DHT22;18496;52.042;6.812;2024-03-08T10:42:23;8.90;99.90
31967;DHT22;18496;52.042;6.812;2024-03-08T10:44:43;9.00;99.90
31967;DHT22;18496;52.042;6.812;2024-03-08T10:49:21;9.20;99.90
31967;DHT22;18496;52.042;6.812;2024-03-08T10:51:29;9.30;99.90
31967;DHT22;18496;52.042;6.812;2024-03-08T10:53:34;9.30;99.90
31967;DHT22;18496;52.042;6.812;2024-03-08T10:55:40;9.40;99.90
31967;DHT22;18496;52.042;6.812;2024-03-08T10:57:44;9.50;99.90
31967;DHT22;18496;52.042;6.812;2024-03-08T10:59:48;9.60;99.90
31967;DHT22;18496;52.042;6.812;2024-03-08T11:01:53;9.70;99.90
31967;DHT22;18496;52.042;6.812;2024-03-08T11:03:57;9.70;99.90
31967;DHT22;18496;52.042;6.812;2024-03-08T11:06:01;9.80;99.90
31967;DHT22;18496;52.042;6.812;2024-03-08T11:10:21;10.00;99.90
31967;DHT22;18496;52.042;6.812;2024-03-08T11:12:29;10.10;99.90
31967;DHT22;18496;52.042;6.812;2024-03-08T11:14:49;10.20;99.90
31967;DHT22;18496;52.042;6.812;2024-03-08T11:16:53;10.20;99.90
31967;DHT22;18496;52.042;6.812;2024-03-08T11:21:24;10.40;99.90
31967;DHT22;18496;52.042;6.812;2024-03-08T11:23:30;10.40;99.90
31967;DHT22;18496;52.042;6.812;2024-03-08T11:25:39;10.40;99.90
31967;DHT22;18496;52.042;6.812;2024-03-08T11:27:53;10.50;99.90
31967;DHT22;18496;52.042;6.812;2024-03-08T11:30:09;10.50;99.90
31967;DHT22;18496;52.042;6.812;2024-03-08T11:32:19;10.50;99.90
31967;DHT22;18496;52.042;6.812;2024-03-08T11:34:25;10.60;99.90
31967;DHT22;18496;52.042;6.812;2024-03-08T11:36:29;10.60;99.90
31967;DHT22;18496;52.042;6.812;2024-03-08T11:38:40;10.70;99.90
31967;DHT22;18496;52.042;6.812;2024-03-08T11:40:46;10.70;99.90
31967;DHT22;18496;52.042;6.812;2024-03-08T11:42:53;10.70;99.90
31967;DHT22;18496;52.042;6.812;2024-03-08T11:44:56;10.80;99.90
31967;DHT22;18496;52.042;6.812;2024-03-08T11:47:01;10.80;99.90
31967;DHT22;18496;52.042;6.812;2024-03-08T11:49:05;10.90;99.90
31967;DHT22;18496;52.042;6.812;2024-03-08T11:51:12;11.00;99.90
31967;DHT22;18496;52.042;6.812;2024-03-08T11:53:17;11.10;99.90
31967;DHT22;18496;52.042;6.812;2024-03-08T11:55:21;11.10;99.90
31967;DHT22;18496;52.042;6.812;2024-03-08T11:57:28;11.20;99.70
31967;DHT22;18496;52.042;6.812;2024-03-08T11:59:33;11.30;99.80
31967;DHT22;18496;52.042;6.812;2024-03-08T12:01:37;11.40;99.90
31967;DHT22;18496;52.042;6.812;2024-03-08T12:03:41;11.40;99.90
31967;DHT22;18496;52.042;6.812;2024-03-08T12:05:57;11.40;99.90
31967;DHT22;18496;52.042;6.812;2024-03-08T12:08:03;11.50;99.90
31967;DHT22;18496;52.042;6.812;2024-03-08T12:10:20;11.60;98.80
31967;DHT22;18496;52.042;6.812;2024-03-08T12:12:25;11.60;99.90
31967;DHT22;18496;52.042;6.812;2024-03-08T12:14:30;11.50;99.90
31967;DHT22;18496;52.042;6.812;2024-03-08T12:16:34;11.50;99.50
31967;DHT22;18496;52.042;6.812;2024-03-08T12:18:39;11.60;98.80
31967;DHT22;18496;52.042;6.812;2024-03-08T12:20:43;11.70;99.10
31967;DHT22;18496;52.042;6.812;2024-03-08T12:23:20;11.70;98.80
31967;DHT22;18496;52.042;6.812;2024-03-08T12:25:43;11.70;99.40
31967;DHT22;18496;52.042;6.812;2024-03-08T12:27:47;11.80;98.60
31967;DHT22;18496;52.042;6.812;2024-03-08T12:29:51;11.80;98.10
31967;DHT22;18496;52.042;6.812;2024-03-08T12:32:15;11.90;98.20
31967;DHT22;18496;52.042;6.812;2024-03-08T12:34:19;11.80;98.40
31967;DHT22;18496;52.042;6.812;2024-03-08T12:36:30;11.90;98.60
31967;DHT22;18496;52.042;6.812;2024-03-08T12:38:52;11.90;97.10
31967;DHT22;18496;52.042;6.812;2024-03-08T12:41:01;12.00;97.80
31967;DHT22;18496;52.042;6.812;2024-03-08T12:43:39;12.00;98.00
31967;DHT22;18496;52.042;6.812;2024-03-08T13:03:33;12.50;98.10
31967;DHT22;18496;52.042;6.812;2024-03-08T13:13:40;12.80;96.70
31967;DHT22;18496;52.042;6.812;2024-03-08T13:49:07;13.50;94.50
31967;DHT22;18496;52.042;6.812;2024-03-08T13:51:14;13.60;94.90
31967;DHT22;18496;52.042;6.812;2024-03-08T13:53:19;13.70;94.90
31967;DHT22;18496;52.042;6.812;2024-03-08T13:55:23;13.70;95.80
31967;DHT22;18496;52.042;6.812;2024-03-08T13:57:30;13.80;94.00
31967;DHT22;18496;52.042;6.812;2024-03-08T13:59:35;13.80;94.80
31967;DHT22;18496;52.042;6.812;2024-03-08T14:01:38;13.90;93.90
31967;DHT22;18496;52.042;6.812;2024-03-08T14:03:42;13.90;94.30
31967;DHT22;18496;52.042;6.812;2024-03-08T14:05:46;13.90;94.40
31967;DHT22;18496;52.042;6.812;2024-03-08T14:07:50;14.00;94.90
31967;DHT22;18496;52.042;6.812;2024-03-08T14:09:54;14.10;94.20
31967;DHT22;18496;52.042;6.812;2024-03-08T14:11:58;14.10;93.20
31967;DHT22;18496;52.042;6.812;2024-03-08T14:14:02;14.10;94.60
31967;DHT22;18496;52.042;6.812;2024-03-08T14:16:05;14.20;94.70
31967;DHT22;18496;52.042;6.812;2024-03-08T14:18:12;14.20;94.20
31967;DHT22;18496;52.042;6.812;2024-03-08T14:20:19;14.20;93.20
31967;DHT22;18496;52.042;6.812;2024-03-08T14:22:22;14.20;94.00
31967;DHT22;18496;52.042;6.812;2024-03-08T14:24:27;14.30;92.40
31967;DHT22;18496;52.042;6.812;2024-03-08T14:26:30;14.30;93.20
31967;DHT22;18496;52.042;6.812;2024-03-08T14:28:34;14.30;92.00